createdAt,value
2023-05-19T00:00:17.499Z,25.11
2023-05-19T00:02:44.145Z,24.43
2023-05-19T00:05:10.796Z,23.49
2023-05-19T00:07:37.353Z,25.08
2023-05-19T00:10:03.880Z,24.46
2023-05-19T00:12:30.422Z,25.33
2023-05-19T00:14:57.063Z,25.69
2023-05-19T00:17:23.669Z,26.01
2023-05-19T00:19:50.233Z,22.98
2023-05-19T00:22:16.918Z,23.20
2023-05-19T00:24:43.599Z,24.12
2023-05-19T00:27:10.128Z,22.95
2023-05-19T00:29:36.734Z,24.21
2023-05-19T00:32:03.394Z,24.31
2023-05-19T00:34:31.076Z,25.09
2023-05-19T00:36:57.609Z,24.37
2023-05-19T00:39:24.099Z,23.20
2023-05-19T00:41:50.815Z,24.02
2023-05-19T00:44:17.468Z,22.35
2023-05-19T00:46:44.090Z,23.65
2023-05-19T00:49:10.708Z,23.09
2023-05-19T00:51:37.235Z,22.35
2023-05-19T00:54:03.767Z,24.09
2023-05-19T00:56:30.350Z,24.44
2023-05-19T00:58:56.934Z,23.71
2023-05-19T01:01:23.516Z,24.02
2023-05-19T01:03:50.205Z,21.82
2023-05-19T01:06:16.744Z,23.75
2023-05-19T01:08:43.248Z,22.47
2023-05-19T01:11:09.903Z,23.09
2023-05-19T01:13:36.670Z,22.66
2023-05-19T01:16:03.432Z,21.40
2023-05-19T01:18:30.068Z,22.70
2023-05-19T01:20:56.613Z,21.50
2023-05-19T01:23:23.118Z,21.65
2023-05-19T01:25:49.672Z,24.00
2023-05-19T01:28:16.224Z,21.58
2023-05-19T01:30:42.755Z,22.18
2023-05-19T01:33:09.404Z,20.30
2023-05-19T01:35:35.971Z,21.49
2023-05-19T01:38:02.572Z,23.18
2023-05-19T01:40:29.289Z,23.12
2023-05-19T01:42:57.502Z,22.86
2023-05-19T01:45:24.260Z,23.73
2023-05-19T01:47:50.839Z,22.48
2023-05-19T01:50:17.381Z,21.90
2023-05-19T01:52:43.993Z,20.56
2023-05-19T01:55:10.546Z,22.45
2023-05-19T01:57:37.112Z,22.16
2023-05-19T02:00:03.645Z,22.12
2023-05-19T02:02:30.225Z,22.60
2023-05-19T02:04:56.781Z,21.20
2023-05-19T02:07:23.314Z,22.91
2023-05-19T02:09:49.897Z,21.87
2023-05-19T02:12:16.545Z,23.04
2023-05-19T02:14:43.150Z,22.86
2023-05-19T02:17:09.740Z,20.85
2023-05-19T02:19:36.251Z,22.09
2023-05-19T02:22:02.823Z,22.35
2023-05-19T02:24:29.419Z,20.59
2023-05-19T02:26:55.890Z,21.93
2023-05-19T02:29:22.577Z,21.59
2023-05-19T02:31:49.161Z,21.20
2023-05-19T02:34:15.750Z,21.57
2023-05-19T02:36:42.335Z,22.01
2023-05-19T02:39:08.903Z,21.38
2023-05-19T02:41:35.503Z,20.61
2023-05-19T02:44:02.152Z,21.10
2023-05-19T02:46:28.874Z,20.54
2023-05-19T02:48:55.379Z,21.60
2023-05-19T02:51:21.884Z,21.15
2023-05-19T02:53:48.538Z,21.67
2023-05-19T02:56:15.146Z,21.20
2023-05-19T02:58:41.788Z,21.21
2023-05-19T03:01:08.311Z,19.80
2023-05-19T03:03:35.036Z,21.20
2023-05-19T03:06:01.721Z,20.53
2023-05-19T03:08:28.269Z,20.69
2023-05-19T03:10:54.797Z,20.41
2023-05-19T03:13:21.380Z,21.15
2023-05-19T03:15:50.923Z,20.43
2023-05-19T03:18:17.528Z,19.61
2023-05-19T03:20:44.065Z,20.90
2023-05-19T03:23:12.775Z,21.40
2023-05-19T03:25:39.291Z,21.87
2023-05-19T03:28:05.870Z,21.22
2023-05-19T03:30:32.813Z,19.11
2023-05-19T03:32:59.634Z,21.23
2023-05-19T03:35:26.279Z,21.01
2023-05-19T03:37:52.809Z,19.54
2023-05-19T03:40:19.352Z,20.62
2023-05-19T03:42:45.955Z,19.62
2023-05-19T03:45:12.485Z,21.08
2023-05-19T03:47:39.095Z,20.80
2023-05-19T03:50:05.745Z,20.85
2023-05-19T03:52:32.351Z,20.96
2023-05-19T03:55:01.782Z,20.00
2023-05-19T03:57:28.372Z,20.51
2023-05-19T03:59:54.986Z,22.20
2023-05-19T04:02:21.660Z,21.55
2023-05-19T04:04:48.261Z,20.18
2023-05-19T04:07:14.811Z,20.50
2023-05-19T04:09:41.380Z,21.30
2023-05-19T04:12:07.913Z,20.76
2023-05-19T04:14:34.529Z,21.08
2023-05-19T04:17:01.129Z,19.56
2023-05-19T04:19:27.862Z,19.70
2023-05-19T04:21:54.627Z,20.81
2023-05-19T04:24:21.283Z,21.09
2023-05-19T04:26:48.889Z,20.68
2023-05-19T04:29:15.477Z,20.49
2023-05-19T04:31:42.156Z,18.56
2023-05-19T04:34:08.844Z,21.09
2023-05-19T04:36:35.418Z,18.82
2023-05-19T04:39:01.929Z,19.69
2023-05-19T04:41:28.464Z,20.76
2023-05-19T04:43:55.051Z,19.89
2023-05-19T04:46:21.629Z,22.01
2023-05-19T04:48:51.210Z,20.79
2023-05-19T04:51:17.805Z,19.72
2023-05-19T04:53:44.307Z,18.60
2023-05-19T04:56:10.772Z,20.01
2023-05-19T04:58:37.751Z,19.72
2023-05-19T05:01:05.251Z,20.32
2023-05-19T05:03:31.986Z,20.15
2023-05-19T05:05:58.558Z,19.13
2023-05-19T05:08:28.102Z,19.87
2023-05-19T05:10:57.428Z,21.55
2023-05-19T05:13:24.033Z,22.16
2023-05-19T05:15:50.639Z,23.81
2023-05-19T05:18:17.220Z,25.36
2023-05-19T05:20:43.736Z,24.01
2023-05-19T05:23:10.246Z,24.63
2023-05-19T05:25:36.874Z,24.23
2023-05-19T05:28:03.462Z,27.35
2023-05-19T05:30:30.038Z,26.40
2023-05-19T05:32:56.713Z,26.27
2023-05-19T05:35:23.365Z,26.47
2023-05-19T05:37:49.959Z,28.16
2023-05-19T05:40:16.478Z,28.44
2023-05-19T05:42:43.056Z,26.15
2023-05-19T05:45:09.650Z,25.20
2023-05-19T05:47:36.231Z,25.34
2023-05-19T05:50:02.814Z,25.69
2023-05-19T05:52:29.345Z,26.40
2023-05-19T05:54:55.845Z,28.04
2023-05-19T05:57:22.345Z,28.61
2023-05-19T05:59:48.806Z,26.33
2023-05-19T06:02:15.326Z,26.58
2023-05-19T06:04:41.962Z,27.53
2023-05-19T06:07:08.433Z,26.97
2023-05-19T06:09:34.955Z,28.49
2023-05-19T06:12:01.480Z,27.43
2023-05-19T06:14:27.965Z,27.07
2023-05-19T06:16:54.503Z,28.24
2023-05-19T06:19:21.187Z,24.19
2023-05-19T06:21:47.828Z,26.95
2023-05-19T06:24:14.428Z,25.33
2023-05-19T06:26:40.994Z,27.55
2023-05-19T06:29:07.526Z,27.87
2023-05-19T06:31:34.156Z,26.77
2023-05-19T06:34:00.736Z,26.46
2023-05-19T06:36:27.242Z,27.99
2023-05-19T06:38:53.697Z,26.64
2023-05-19T06:41:23.043Z,27.13
2023-05-19T06:43:49.644Z,26.90
2023-05-19T06:46:16.172Z,25.79
2023-05-19T06:48:42.708Z,26.81
2023-05-19T06:51:09.319Z,26.36
2023-05-19T06:53:35.813Z,25.01
2023-05-19T06:56:02.305Z,25.02
2023-05-19T06:58:28.849Z,25.10
2023-05-19T07:00:55.428Z,25.60
2023-05-19T07:03:21.987Z,27.13
2023-05-19T07:05:48.738Z,24.94
2023-05-19T07:08:15.239Z,23.90
2023-05-19T07:10:41.797Z,25.98
2023-05-19T07:13:08.302Z,27.95
2023-05-19T07:15:34.814Z,25.03
2023-05-19T07:18:01.319Z,24.40
2023-05-19T07:20:27.799Z,23.32
2023-05-19T07:22:54.253Z,25.26
2023-05-19T07:25:20.746Z,25.05
2023-05-19T07:27:47.264Z,26.27
2023-05-19T07:30:13.834Z,26.71
2023-05-19T07:32:40.475Z,26.94
2023-05-19T07:35:07.039Z,27.19
2023-05-19T07:37:33.555Z,29.32
2023-05-19T07:40:00.100Z,28.69
2023-05-19T07:42:26.773Z,38.24
2023-05-19T07:44:53.388Z,36.14
2023-05-19T07:47:20.574Z,35.09
2023-05-19T07:49:48.090Z,38.82
2023-05-19T07:52:15.719Z,38.47
2023-05-19T07:54:42.253Z,41.37
2023-05-19T07:57:10.181Z,41.96
2023-05-19T07:59:36.725Z,41.86
2023-05-19T08:02:03.305Z,43.80
2023-05-19T08:04:29.985Z,40.97
2023-05-19T08:06:56.547Z,41.97
2023-05-19T08:09:23.079Z,40.36
2023-05-19T08:11:52.454Z,40.32
2023-05-19T08:14:18.974Z,39.22
2023-05-19T08:16:45.462Z,40.35
2023-05-19T08:19:12.531Z,37.52
2023-05-19T08:21:39.179Z,37.93
2023-05-19T08:24:05.706Z,40.87
2023-05-19T08:26:32.267Z,39.59
2023-05-19T08:28:58.834Z,39.08
2023-05-19T08:31:25.517Z,42.33
2023-05-19T08:33:52.113Z,44.25
2023-05-19T08:36:18.613Z,48.67
2023-05-19T08:38:45.165Z,47.64
2023-05-19T08:41:11.705Z,47.16
2023-05-19T08:43:38.343Z,48.25
2023-05-19T08:46:04.829Z,48.03
2023-05-19T08:48:31.378Z,47.27
2023-05-19T08:50:57.930Z,48.55
2023-05-19T08:53:33.668Z,50.44
2023-05-19T08:56:00.815Z,49.46
2023-05-19T08:58:28.734Z,49.28
2023-05-19T09:00:55.488Z,44.37
2023-05-19T09:03:23.857Z,45.86
2023-05-19T09:05:50.893Z,42.34
2023-05-19T09:08:17.499Z,45.61
2023-05-19T09:10:44.074Z,43.67
2023-05-19T09:13:10.632Z,43.34
2023-05-19T09:15:37.171Z,43.60
2023-05-19T09:18:03.797Z,44.73
2023-05-19T09:20:30.377Z,41.63
2023-05-19T09:22:56.922Z,40.78
2023-05-19T09:25:23.504Z,43.41
2023-05-19T09:27:50.055Z,44.42
2023-05-19T09:30:16.652Z,43.16
2023-05-19T09:32:43.931Z,39.65
2023-05-19T09:35:10.674Z,38.44
2023-05-19T09:37:37.233Z,39.54
2023-05-19T09:40:03.821Z,40.95
2023-05-19T09:42:30.377Z,38.98
2023-05-19T09:44:56.892Z,34.59
2023-05-19T09:47:23.508Z,35.12
2023-05-19T09:49:50.071Z,36.60
2023-05-19T09:52:16.674Z,39.46
2023-05-19T09:54:43.199Z,37.40
2023-05-19T09:57:09.681Z,35.39
2023-05-19T09:59:36.175Z,37.05
2023-05-19T10:02:03.123Z,33.97
2023-05-19T10:04:29.946Z,34.69
2023-05-19T10:06:56.508Z,34.30
2023-05-19T10:09:23.072Z,42.26
2023-05-19T10:11:49.641Z,42.58
2023-05-19T10:14:16.146Z,45.80
2023-05-19T10:16:42.776Z,42.64
2023-05-19T10:19:09.410Z,47.86
2023-05-19T10:21:35.979Z,48.14
2023-05-19T10:24:02.505Z,50.44
2023-05-19T10:26:29.047Z,42.11
2023-05-19T10:28:55.599Z,38.30
2023-05-19T10:31:22.189Z,40.47
2023-05-19T10:33:48.764Z,39.02
2023-05-19T10:36:15.264Z,38.87
2023-05-19T10:38:41.838Z,39.81
2023-05-19T10:41:08.848Z,37.71
2023-05-19T10:43:35.442Z,38.25
2023-05-19T10:46:02.090Z,39.09
2023-05-19T10:48:28.634Z,37.08
2023-05-19T10:50:55.148Z,36.54
2023-05-19T10:53:21.684Z,37.01
2023-05-19T10:55:48.202Z,36.94
2023-05-19T10:58:14.780Z,38.26
2023-05-19T11:00:41.366Z,38.69
2023-05-19T11:03:07.953Z,36.21
2023-05-19T11:05:34.693Z,38.74
2023-05-19T11:08:01.417Z,36.47
2023-05-19T11:10:27.999Z,36.98
2023-05-19T11:12:54.539Z,36.43
2023-05-19T11:15:20.992Z,36.65
2023-05-19T11:17:47.518Z,36.79
2023-05-19T11:20:14.216Z,33.41
2023-05-19T11:22:40.733Z,33.86
2023-05-19T11:25:09.995Z,33.00
2023-05-19T11:27:36.568Z,34.62
2023-05-19T11:30:03.115Z,34.01
2023-05-19T11:32:29.788Z,33.62
2023-05-19T11:34:56.458Z,33.26
2023-05-19T11:37:22.939Z,32.89
2023-05-19T11:39:49.474Z,31.36
2023-05-19T11:42:15.982Z,32.12
2023-05-19T11:44:42.501Z,32.95
2023-05-19T11:47:09.058Z,34.84
2023-05-19T11:49:35.625Z,30.47
2023-05-19T11:52:02.173Z,31.20
2023-05-19T11:54:28.709Z,31.34
2023-05-19T11:56:55.761Z,30.03
2023-05-19T11:59:22.296Z,29.09
2023-05-19T12:01:48.816Z,28.93
2023-05-19T12:04:15.376Z,29.15
2023-05-19T12:06:41.971Z,29.55
2023-05-19T12:09:08.608Z,29.31
2023-05-19T12:11:35.173Z,31.26
2023-05-19T12:14:01.702Z,28.98
2023-05-19T12:16:28.229Z,30.83
2023-05-19T12:18:54.860Z,30.58
2023-05-19T12:21:21.453Z,29.59
2023-05-19T12:23:47.925Z,28.67
2023-05-19T12:26:14.456Z,28.79
2023-05-19T12:28:40.929Z,28.93
2023-05-19T12:31:07.481Z,28.81
2023-05-19T12:33:35.605Z,28.42
2023-05-19T12:36:02.523Z,30.92
2023-05-19T12:38:29.093Z,30.55
2023-05-19T12:40:55.673Z,29.49
2023-05-19T12:43:22.259Z,29.62
2023-05-19T12:45:48.929Z,28.37
2023-05-19T12:48:15.452Z,28.36
2023-05-19T12:50:42.124Z,30.63
2023-05-19T12:53:08.745Z,29.10
2023-05-19T12:55:35.250Z,29.86
2023-05-19T12:58:01.728Z,30.25
2023-05-19T13:00:28.664Z,29.00
2023-05-19T13:02:55.716Z,26.17
2023-05-19T13:05:22.388Z,28.36
2023-05-19T13:07:48.832Z,29.48
2023-05-19T13:10:15.284Z,28.28
2023-05-19T13:12:41.784Z,29.61
2023-05-19T13:15:08.361Z,29.03
2023-05-19T13:17:34.983Z,28.75
2023-05-19T13:20:01.493Z,27.52
2023-05-19T13:22:28.063Z,27.68
2023-05-19T13:24:54.569Z,27.51
2023-05-19T13:27:21.127Z,26.75
2023-05-19T13:29:47.680Z,25.81
2023-05-19T13:32:14.195Z,28.17
2023-05-19T13:34:40.911Z,28.19
2023-05-19T13:37:07.733Z,28.19
2023-05-19T13:39:34.895Z,26.67
2023-05-19T13:42:01.378Z,26.44
2023-05-19T13:44:27.837Z,25.88
2023-05-19T13:46:54.421Z,26.22
2023-05-19T13:49:20.926Z,27.08
2023-05-19T13:51:47.443Z,26.20
2023-05-19T13:54:14.019Z,26.76
2023-05-19T13:56:40.509Z,24.82
2023-05-19T13:59:07.019Z,26.54
2023-05-19T14:01:33.608Z,25.47
2023-05-19T14:04:00.993Z,25.51
2023-05-19T14:06:27.803Z,24.69
2023-05-19T14:08:54.340Z,25.50
2023-05-19T14:11:20.921Z,25.98
2023-05-19T14:13:47.416Z,26.65
2023-05-19T14:16:13.980Z,27.63
2023-05-19T14:18:40.665Z,28.14
2023-05-19T14:21:07.230Z,28.23
2023-05-19T14:23:33.778Z,26.09
2023-05-19T14:26:00.267Z,26.35
2023-05-19T14:28:26.842Z,26.52
2023-05-19T14:30:53.333Z,27.98
2023-05-19T14:33:19.825Z,27.64
2023-05-19T14:35:46.301Z,27.51
2023-05-19T14:38:12.841Z,28.32
2023-05-19T14:40:39.415Z,26.34
2023-05-19T14:43:05.939Z,28.68
2023-05-19T14:45:32.455Z,28.32
2023-05-19T14:47:59.024Z,27.15
2023-05-19T14:50:26.877Z,27.43
2023-05-19T14:52:54.340Z,26.05
2023-05-19T14:55:20.915Z,27.35
2023-05-19T14:57:47.477Z,26.57
2023-05-19T15:00:14.028Z,27.44
2023-05-19T15:02:40.624Z,26.09
2023-05-19T15:05:07.188Z,27.51
2023-05-19T15:07:33.745Z,27.61
2023-05-19T15:10:00.245Z,28.91
2023-05-19T15:12:26.753Z,25.53
2023-05-19T15:14:53.302Z,24.91
2023-05-19T15:17:19.851Z,26.61
2023-05-19T15:19:46.391Z,28.41
2023-05-19T15:22:12.875Z,26.22
2023-05-19T15:24:39.340Z,27.64
2023-05-19T15:27:05.873Z,26.75
2023-05-19T15:29:32.409Z,25.61
2023-05-19T15:31:58.935Z,27.53
2023-05-19T15:34:25.533Z,25.95
2023-05-19T15:36:52.100Z,27.61
2023-05-19T15:39:18.671Z,26.09
2023-05-19T15:41:45.213Z,30.48
2023-05-19T15:44:12.068Z,28.56
2023-05-19T15:46:38.619Z,28.51
2023-05-19T15:49:05.264Z,28.43
2023-05-19T15:51:33.045Z,29.85
2023-05-19T15:53:59.986Z,27.57
2023-05-19T15:56:26.507Z,28.22
2023-05-19T15:58:53.056Z,27.73
2023-05-19T16:01:20.206Z,29.11
2023-05-19T16:03:47.135Z,29.50
2023-05-19T16:06:13.821Z,28.67
2023-05-19T16:08:40.325Z,26.71
2023-05-19T16:11:06.834Z,30.83
2023-05-19T16:13:33.395Z,28.71
2023-05-19T16:16:00.001Z,29.13
2023-05-19T16:18:26.631Z,28.10
2023-05-19T16:20:53.178Z,29.76
2023-05-19T16:23:19.682Z,28.12
2023-05-19T16:25:46.175Z,27.12
2023-05-19T16:28:12.693Z,28.10
2023-05-19T16:30:39.161Z,27.43
2023-05-19T16:33:05.770Z,29.08
2023-05-19T16:35:32.437Z,26.72
2023-05-19T16:37:59.027Z,29.51
2023-05-19T16:40:25.602Z,32.19
2023-05-19T16:42:52.064Z,32.83
2023-05-19T16:45:18.582Z,34.81
2023-05-19T16:47:45.131Z,35.02
2023-05-19T16:50:11.681Z,35.45
2023-05-19T16:52:38.388Z,34.58
2023-05-19T16:55:04.888Z,38.14
2023-05-19T16:57:31.395Z,40.32
2023-05-19T16:59:57.977Z,36.06
2023-05-19T17:02:24.485Z,36.04
2023-05-19T17:04:51.119Z,34.87
2023-05-19T17:07:17.656Z,37.70
2023-05-19T17:09:44.154Z,34.10
2023-05-19T17:12:10.635Z,33.80
2023-05-19T17:14:37.204Z,31.20
2023-05-19T17:17:03.814Z,32.19
2023-05-19T17:19:30.413Z,32.52
2023-05-19T17:21:56.977Z,31.65
2023-05-19T17:24:23.523Z,30.64
2023-05-19T17:26:50.508Z,33.06
2023-05-19T17:29:17.333Z,34.27
2023-05-19T17:31:43.872Z,38.26
2023-05-19T17:34:10.476Z,34.46
2023-05-19T17:36:37.105Z,35.96
2023-05-19T17:39:03.610Z,35.67
2023-05-19T17:41:30.063Z,37.93
2023-05-19T17:43:56.569Z,42.02
2023-05-19T17:46:23.080Z,43.39
2023-05-19T17:48:49.570Z,44.48
2023-05-19T17:51:16.122Z,46.86
2023-05-19T17:53:42.709Z,45.71
2023-05-19T17:56:09.217Z,47.81
2023-05-19T17:58:35.768Z,49.43
2023-05-19T18:01:02.312Z,55.53
2023-05-19T18:03:29.127Z,145.41
2023-05-19T18:05:55.757Z,255.32
2023-05-19T18:08:22.308Z,201.72
2023-05-19T18:10:48.887Z,187.63
2023-05-19T18:13:15.384Z,210.87
2023-05-19T18:15:42.040Z,235.14
2023-05-19T18:18:08.624Z,239.92
2023-05-19T18:20:35.453Z,233.98
2023-05-19T18:23:02.436Z,227.09
2023-05-19T18:25:29.071Z,223.75
2023-05-19T18:27:55.713Z,211.49
2023-05-19T18:30:22.244Z,206.75
2023-05-19T18:32:48.828Z,203.65
2023-05-19T18:35:15.375Z,204.48
2023-05-19T18:37:41.877Z,205.42
2023-05-19T18:40:08.432Z,202.38
2023-05-19T18:42:35.047Z,201.46
2023-05-19T18:45:01.535Z,203.08
2023-05-19T18:47:28.074Z,199.82
2023-05-19T18:49:54.644Z,196.60
2023-05-19T18:52:21.259Z,200.80
2023-05-19T18:54:47.792Z,200.21
2023-05-19T18:57:14.301Z,192.32
2023-05-19T18:59:40.781Z,194.78
2023-05-19T19:02:07.467Z,193.63
2023-05-19T19:04:34.010Z,187.39
2023-05-19T19:07:00.547Z,189.16
2023-05-19T19:09:27.043Z,185.86
2023-05-19T19:11:53.599Z,181.30
2023-05-19T19:14:20.202Z,184.74
2023-05-19T19:16:46.794Z,182.18
2023-05-19T19:19:13.454Z,180.81
2023-05-19T19:21:40.118Z,178.92
2023-05-19T19:24:06.679Z,180.32
2023-05-19T19:26:33.198Z,177.52
2023-05-19T19:28:59.671Z,174.17
2023-05-19T19:31:26.291Z,169.03
2023-05-19T19:33:52.780Z,171.59
2023-05-19T19:36:19.343Z,169.09
2023-05-19T19:38:45.904Z,171.35
2023-05-19T19:41:12.431Z,170.49
2023-05-19T19:43:39.040Z,166.62
2023-05-19T19:46:05.611Z,170.60
2023-05-19T19:48:32.135Z,167.90
2023-05-19T19:50:58.723Z,159.97
2023-05-19T19:53:25.208Z,166.36
2023-05-19T19:55:51.763Z,162.03
2023-05-19T19:58:18.286Z,163.10
2023-05-19T20:00:44.852Z,161.21
2023-05-19T20:03:11.503Z,158.15
2023-05-19T20:05:38.006Z,156.14
2023-05-19T20:08:04.552Z,148.81
2023-05-19T20:10:31.128Z,149.76
2023-05-19T20:12:57.765Z,149.53
2023-05-19T20:15:24.341Z,145.01
2023-05-19T20:17:50.962Z,141.46
2023-05-19T20:20:17.571Z,130.71
2023-05-19T20:22:44.170Z,130.19
2023-05-19T20:25:10.766Z,129.34
2023-05-19T20:27:37.337Z,128.51
2023-05-19T20:30:03.983Z,129.60
2023-05-19T20:32:30.610Z,132.50
2023-05-19T20:34:57.180Z,132.75
2023-05-19T20:37:23.764Z,129.19
2023-05-19T20:39:50.372Z,128.77
2023-05-19T20:42:16.926Z,124.12
2023-05-19T20:44:43.649Z,130.07
2023-05-19T20:47:10.318Z,126.99
2023-05-19T20:49:36.933Z,128.17
2023-05-19T20:52:03.531Z,124.93
2023-05-19T20:54:30.123Z,121.38
2023-05-19T20:56:56.740Z,124.18
2023-05-19T20:59:23.337Z,122.93
2023-05-19T21:01:49.977Z,123.61
2023-05-19T21:04:16.587Z,126.34
2023-05-19T21:06:43.237Z,125.96
2023-05-19T21:09:09.885Z,124.86
2023-05-19T21:11:36.491Z,121.50
2023-05-19T21:14:03.124Z,123.35
2023-05-19T21:16:29.812Z,122.11
2023-05-19T21:18:56.483Z,122.25
2023-05-19T21:21:23.109Z,122.94
2023-05-19T21:23:49.688Z,118.10
2023-05-19T21:26:16.229Z,119.13
2023-05-19T21:28:42.738Z,116.87
2023-05-19T21:31:09.333Z,117.00
2023-05-19T21:33:35.927Z,122.34
2023-05-19T21:36:02.488Z,114.46
2023-05-19T21:38:29.134Z,118.30
2023-05-19T21:40:55.730Z,120.60
2023-05-19T21:43:22.330Z,118.07
2023-05-19T21:45:48.941Z,119.23
2023-05-19T21:48:15.538Z,116.71
2023-05-19T21:50:42.075Z,113.17
2023-05-19T21:53:08.582Z,110.07
2023-05-19T21:55:35.182Z,115.33
2023-05-19T21:58:02.723Z,110.45
2023-05-19T22:00:29.707Z,109.59
2023-05-19T22:02:56.534Z,111.66
2023-05-19T22:05:23.253Z,115.51
2023-05-19T22:07:49.866Z,111.79
2023-05-19T22:10:16.397Z,109.38
2023-05-19T22:12:42.921Z,114.13
2023-05-19T22:15:09.514Z,109.91
2023-05-19T22:17:36.102Z,110.40
2023-05-19T22:20:02.740Z,109.18
2023-05-19T22:22:29.288Z,112.13
2023-05-19T22:24:55.886Z,113.27
2023-05-19T22:27:22.423Z,105.19
2023-05-19T22:29:48.996Z,109.60
2023-05-19T22:32:15.607Z,106.76
2023-05-19T22:34:42.232Z,110.39
2023-05-19T22:37:08.839Z,111.53
2023-05-19T22:39:35.434Z,105.48
2023-05-19T22:42:01.964Z,107.04
2023-05-19T22:44:28.558Z,108.15
2023-05-19T22:46:55.100Z,104.69
2023-05-19T22:49:21.690Z,103.56
2023-05-19T22:51:48.267Z,103.41
2023-05-19T22:54:14.874Z,106.36
2023-05-19T22:56:41.878Z,104.91
2023-05-19T22:59:09.255Z,104.18
2023-05-19T23:01:35.831Z,101.72
2023-05-19T23:04:02.516Z,104.15
2023-05-19T23:06:29.144Z,102.74
2023-05-19T23:08:55.746Z,103.61
2023-05-19T23:11:22.336Z,99.22
2023-05-19T23:13:48.924Z,100.67
2023-05-19T23:16:15.436Z,101.07
2023-05-19T23:18:42.102Z,101.99
2023-05-19T23:21:08.669Z,99.64
2023-05-19T23:23:35.203Z,100.72
2023-05-19T23:26:01.812Z,102.50
2023-05-19T23:28:28.409Z,100.14
2023-05-19T23:30:55.047Z,95.58
2023-05-19T23:33:21.659Z,100.35
2023-05-19T23:35:48.222Z,98.79
2023-05-19T23:38:14.837Z,98.85
2023-05-19T23:40:41.392Z,99.55
2023-05-19T23:43:07.966Z,96.88
2023-05-19T23:45:34.693Z,94.99
2023-05-19T23:48:01.525Z,98.13
2023-05-19T23:50:28.195Z,95.96
2023-05-19T23:52:54.813Z,95.81
2023-05-19T23:55:21.399Z,97.57
2023-05-19T23:57:47.991Z,92.66
